Tiempo atmosférico en la estación meteorológica de Sevilla Aeropuerto, Sevilla (34 m.)



Fecha
DESCASC
Temp. máxima en grados centígrados (hora)
DESCASC
Temp. mínima en grados centígrados (hora)
DESCASC
Temp. media en grados centígrados
DESCASC
Racha de viento máxima en m/sg (hora)
DESCASC
Velocidad máxima media en intervalos de 10 minutos(hora)
DESCASC
Precipitaciones diarias en mm
DESCASC
Precipitaciones de 00:00 a 06:00 en mm
DESCASC
Precipitaciones de 06:00 a 12:00 en mm
DESCASC
Precipitaciones de 12:00 a 18:00 en mm
DESCASC
Precipitaciones de 18:00 a 24:00 en mm
DESCASC
17-03-2019 25.7 (17:00) 9.9 (01:20) 17.8 11.67 (16:40) 8.33 (17:00) 0 0 0 0 0
16-03-2019 26.1 (16:40) 6 (07:50) 16.1 8.33 (18:30) 6.39 (18:30) 0 0 0 0 0
15-03-2019 27 (17:20) 7.1 (07:40) 17 9.72 (10:20) 6.67 (10:20) 0 0 0 0 0
14-03-2019 23 (16:10) 8 (00:00) 15.5 12.5 (09:50) 8.61 (10:10) 0 0 0 0 0
13-03-2019 22.1 (16:40) 8 (07:40) 15.1 9.72 (17:50) 6.39 (17:50) 0 0 0 0 0
12-03-2019 25.7 (17:20) 9.9 (00:00) 17.8 7.78 (17:20) 5.83 (18:10) 0 0 0 0 0
11-03-2019 28.1 (17:50) 10 (00:00) 19.1 6.67 (23:59) 4.17 (23:59) 0 0 0 0 0
10-03-2019 26.7 (18:20) 7.5 (00:00) 17.1 5.83 (11:10) 3.89 (10:10) 0 0 0 0 0
09-03-2019 23.1 (17:00) 7.6 (00:00) 15.4 9.17 (10:50) 6.39 (10:50) 0 0 0 0 0
08-03-2019 19.4 (16:30) 10.6 (00:00) 15 8.33 (16:40) 4.72 (10:30) 0 0 0 0 0
07-03-2019 18 (14:40) 4.4 (00:00) 11.2 9.72 (18:30) 7.22 (18:40) 0 0 0 0 0
06-03-2019 18.4 (13:50) 10.9 (00:00) 14.6 22.22 (11:50) 15 (11:50) 4.4 0 3.9 0.5 0
05-03-2019 18.3 (15:20) 14 (00:00) 16.1 9.17 (14:50) 6.94 (15:10) 0.6 0 0 0.6 0
04-03-2019 19.5 (14:30) 11.1 (00:00) 15.3 10.28 (18:50) 7.78 (18:50) 0 0 0 0 0
03-03-2019 25.1 (15:50) 6.9 (00:00) 16 7.22 (20:00) 5.28 (20:10) 0 0 0 0 0
02-03-2019 22.4 (16:50) 7.4 (00:00) 14.9 6.11 (21:00) 4.17 (21:00) 0 0 0 0 0
01-03-2019 20.5 (16:20) 6.7 (00:00) 13.6 8.89 (18:50) 6.11 (18:50) 0 0 0 0 0
28-02-2019 24.2 (16:20) 4.9 (00:00) 14.6 6.11 (20:20) 4.17 (20:20) 0 0 0 0 0
27-02-2019 22.9 (17:20) 4.2 (00:00) 13.5 5.83 (03:00) 4.44 (18:10) 0 0 0 0 0
26-02-2019 24.6 (16:00) 6.9 (00:00) 15.8 10.28 (11:50) 7.5 (11:40) 0 0 0 0 0
25-02-2019 22.3 (16:40) 8.6 (00:00) 15.4 12.5 (11:50) 8.61 (10:40) 0 0 0 0 0
24-02-2019 23.7 (16:20) 5.9 (00:00) 14.8 7.78 (10:30) 5.56 (11:00) 0 0 0 0 0
23-02-2019 23.4 (17:10) 6.3 (00:00) 14.8 6.67 (15:20) 5 (11:40) 0 0 0 0 0
22-02-2019 23.6 (18:00) 7.2 (00:00) 15.4 6.11 (06:20) 4.72 (06:20) 0 0 0 0 0
21-02-2019 22 (16:30) 7.5 (02:30) 14.8 7.22 (09:30) 4.72 (09:10) 0 0 0 0 0
20-02-2019 20.9 (17:30) 6.9 (08:10) 13.9 6.11 (11:10) 3.89 (10:10) 0 0 0 0 0

Gráficas

Temp. máximas Temp. mínimas Temp. medias Precipitaciones Rachas de viento máximas Velocidades máximas media en intervalos de 10 minutos

Datos horarios

Fecha y hora oficial Temperatura (ºC) Velocidad del viento (km/h) Dirección del viento Racha (km/h) Dirección de racha Precipitación (mm) Presión (hPa) Tendencia (hPa) Humedad (%)
2019-03-21 23:00:00 11.3 0 Calma 11 Sur 0 1021.2 2.1 58
2019-03-21 22:00:00 13.8 10 Sur 21 Sudeste 0 1020.5 1.5 46
2019-03-21 21:00:00 13.5 13 Sudeste -- -- 0 1019.7 0.9 46
2019-03-21 20:00:00 16.1 -- -- -- -- 0 1019.1 0.1 29
2019-03-21 19:00:00 19.2 14 Nordeste 28 Este 0 1019 -0.5 20
2019-03-21 18:00:00 19.9 17 Este 32 Este 0 1018.8 -1.1 21
2019-03-21 17:00:00 20.3 13 Este 33 Este 0 1019 -2 20
2019-03-21 16:00:00 19.9 14 Este 35 Este 0 1019.5 -2.2 21
2019-03-21 15:00:00 19.6 19 Este 45 Este 0 1019.9 -2.2 26
2019-03-21 14:00:00 18.9 19 Este 39 Este 0 1021 -1.4 27
2019-03-21 13:00:00 17.8 20 Este 39 Este 0 1021.7 -0.9 32
2019-03-21 12:00:00 17.1 23 Este 37 Sudeste 0 1022.1 -0.4 33
2019-03-21 11:00:00 15.2 19 Nordeste 32 Este 0 1022.4 0.3 50
2019-03-21 10:00:00 13.7 21 Nordeste 30 Este 0 1022.6 1.1 62
2019-03-21 09:00:00 11.2 12 Nordeste 24 Nordeste 0 1022.5 1.5 70
2019-03-21 08:00:00 8.9 15 Este 24 Nordeste 0 1022.1 1.4 79
2019-03-21 07:00:00 9 15 Nordeste 22 Nordeste 0 1021.5 0.7 78
2019-03-21 06:00:00 8.7 11 Este 18 Este 0 1021 -0.2 80
2019-03-21 05:00:00 8.5 6 Este 18 Nordeste 0 1020.7 -0.7 80
2019-03-21 04:00:00 9.6 12 Este 22 Este 0 1020.8 -0.8 76
2019-03-21 03:00:00 9.8 16 Este 21 Este 0 1021.2 -0.2 74
2019-03-21 02:00:00 9.2 8 Este 17 Nordeste 0 1021.4 0.1 73
2019-03-21 01:00:00 9.6 9 Nordeste 13 Nordeste 0 1021.6 0.6 71
2019-03-21 00:00:00 10.7 5 Este 9 Este 0 1021.4 0.8 66
2019-03-20 23:00:00 11.9 3 Norte 13 Sudeste 0 1021.3 1.5 60
2019-03-20 22:00:00 13.4 12 Sudeste 22 Sudeste 0 1021 1.7 55
2019-03-20 21:00:00 14.7 12 Sudeste 18 Sur 0 1020.6 2 49
2019-03-20 20:00:00 15.9 9 Este 15 Este 0 1019.8 1.4 45
2019-03-20 19:00:00 19.1 11 Nordeste 28 Este 0 1019.3 0.4 35
2019-03-20 18:00:00 19.4 15 Nordeste 32 Norte 0 1018.6 -0.9 34
2019-03-20 17:00:00 20.5 12 Nordeste 33 Nordeste 0 1018.4 -1.9 32
2019-03-20 16:00:00 19.9 10 Nordeste 28 Norte 0 1018.9 -2.2 32
2019-03-20 15:00:00 19.3 13 Nordeste 28 Nordeste 0 1019.5 -2.3 33
2019-03-20 14:00:00 18.7 12 Nordeste 32 Este 0 1020.3 -1.6 35
2019-03-20 13:00:00 18.3 12 Nordeste 30 Nordeste 0 1021.1 -0.7 37
2019-03-20 12:00:00 17.2 17 Este 32 Este 0 1021.8 0.1 38
2019-03-20 11:00:00 16.2 20 Nordeste 33 Este 0 1021.9 0.9 40
2019-03-20 10:00:00 14.3 21 Nordeste 32 Nordeste 0 1021.8 1.5 40
2019-03-20 09:00:00 10.6 12 Nordeste 17 Nordeste 0 1021.7 1.7 56
2019-03-20 08:00:00 6.8 13 Nordeste 18 Nordeste 0 1021 1.2 71
2019-03-20 07:00:00 8.4 13 Nordeste 18 Nordeste 0 1020.3 0.7 61
2019-03-20 06:00:00 7 12 Norte 15 Nordeste 0 1020 0.2 69
2019-03-20 05:00:00 8.4 13 Nordeste 17 Nordeste 0 1019.8 -0.2 61
2019-03-20 04:00:00 9.5 14 Nordeste 21 Nordeste 0 1019.6 -0.6 56
2019-03-20 03:00:00 9.6 8 Nordeste 18 Sur 0 1019.8 -0.5 60
2019-03-20 02:00:00 9.2 8 Nordeste 17 Nordeste 0 1020 0.2 62
2019-03-20 01:00:00 10 10 Nordeste 15 Este 0 1020.2 0.8 58
2019-03-20 00:00:00 11.2 10 Nordeste 18 Norte 0 1020.3 1.6 53
2019-03-19 23:00:00 13.4 12 Nordeste 22 Este 0 1019.8 1.6 45
2019-03-19 22:00:00 14.9 12 Este 21 Este 0 1019.4 2 40
2019-03-19 21:00:00 15.8 13 Este 18 Este 0 1018.7 1.9 39
2019-03-19 20:00:00 18.8 13 Nordeste 32 Este 0 1018.2 1.6 29
2019-03-19 19:00:00 20.9 20 Nordeste 35 Nordeste 0 1017.4 0.6 26
2019-03-19 18:00:00 22.1 22 Nordeste 35 Nordeste 0 1016.8 -0.4 25
2019-03-19 17:00:00 22.5 21 Norte 37 Nordeste 0 1016.6 -1.6 23
2019-03-19 16:00:00 22.1 16 Nordeste 32 Nordeste 0 1016.8 -2.3 24
2019-03-19 15:00:00 21.6 14 Nordeste 35 Este 0 1017.2 -2.4 25
2019-03-19 14:00:00 20.7 15 Este 35 Este 0 1018.2 -1.3 24
2019-03-19 13:00:00 19.6 22 Este 39 Este 0 1019.1 -0.3 28
2019-03-19 12:00:00 18.2 19 Nordeste 30 Nordeste 0 1019.6 0.3 47
2019-03-19 11:00:00 17 12 Nordeste 22 Nordeste 0 1019.5 0.5 66
2019-03-19 10:00:00 14.4 7 Norte 11 Norte 0 1019.4 1.1 82
2019-03-19 09:00:00 10.7 5 Norte 11 Norte 0 1019.3 1.3 90
2019-03-19 08:00:00 8.6 7 Nordeste 13 Nordeste 0 1019 0.9 93
2019-03-19 07:00:00 10.2 9 Este 13 Este 0 1018.3 0.1 98
2019-03-19 06:00:00 8.1 7 Nordeste 9 Nordeste 0 1018 -0.4 93
2019-03-19 05:00:00 8.5 3 Este 9 Nordeste 0 1018.1 -0.7 91
2019-03-19 04:00:00 9.4 4 Este 9 Sur 0 1018.2 -0.5 93
2019-03-19 03:00:00 10 4 Sur 9 Sudoeste 0 1018.4 -0.2 90
2019-03-19 02:00:00 12.3 5 Sudoeste 11 Sudoeste 0 1018.8 0.1 85
2019-03-19 01:00:00 12.7 5 Sudoeste 18 Sudoeste 0 1018.7 0.6 83
2019-03-19 00:00:00 14.3 13 Sudoeste 22 Sudoeste 0 1018.6 1.5 77
2019-03-18 23:00:00 15.1 14 Sudoeste 21 Sudoeste 0 1018.7 2 76
2019-03-18 22:00:00 15.8 13 Oeste 22 Oeste 0 1018.1 1.9 63
2019-03-18 21:00:00 16.4 0 Calma -- -- 0 1017.1 1.3 58
2019-03-18 20:00:00 19.7 3 Sur 11 Sudeste 0 1016.7 0.9 44
2019-03-18 19:00:00 21.8 9 Este 13 Este 0 1016.2 0.2 35
2019-03-18 18:00:00 23 7 Nordeste 15 Este 0 1015.8 -0.9 33
2019-03-18 17:00:00 23.2 6 Norte 21 Este 0 1015.8 -1.8 33
2019-03-18 16:00:00 22.8 11 Nordeste 24 Nordeste 0 1016 -1.8 37
2019-03-18 15:00:00 22 12 Nordeste 22 Nordeste 0 1016.7 -1.4 39
2019-03-18 14:00:00 21.4 3 Sur 15 Norte 0 1017.6 -0.6 40
2019-03-18 13:00:00 19.6 7 Norte 22 Este 0 1017.8 -0.2 50
2019-03-18 12:00:00 19 13 Este 24 Este 0 1018.1 0.8 55
2019-03-18 11:00:00 17 12 Este 21 Este 0 1018.2 1.6 60
2019-03-18 10:00:00 14.8 13 Nordeste 21 Nordeste 0 1018 2.1 70
2019-03-18 09:00:00 11.6 0 Calma 11 Norte 0 1017.3 1.8 85
2019-03-18 08:00:00 9.4 0 Calma 9 Oeste 0 1016.6 1.3 90
2019-03-18 07:00:00 9.9 4 Noroeste 9 Norte 0 1015.9 0.3 88
2019-03-18 06:00:00 10.5 3 Nordeste 17 Noroeste 0 1015.5 -0.4 84
2019-03-18 05:00:00 10.2 0 Calma 13 Norte 0 1015.3 -0.8 84
2019-03-18 04:00:00 10.8 7 Norte 13 Noroeste 0 1015.6 -0.6 82
2019-03-18 03:00:00 10.8 13 Noroeste 15 Noroeste 0 1015.9 -0.5 83
2019-03-18 02:00:00 12.2 8 Noroeste 9 Noroeste 0 1016.1 -0.1 78
2019-03-18 01:00:00 12.5 8 Oeste 15 Noroeste 0 1016.2 0.3 75
2019-03-18 00:00:00 13.9 11 Noroeste 13 Noroeste 0 1016.4 0.9 67
2019-03-17 23:00:00 14.9 9 Noroeste 17 Noroeste 0 1016.2 1.4 62
2019-03-17 22:00:00 15.3 9 Noroeste 15 Noroeste 0 1015.9 1.5 58
2019-03-17 21:00:00 17 10 Noroeste 21 Norte 0 1015.5 1.5 52
2019-03-17 20:00:00 18.4 12 Noroeste 26 Noroeste 0 1014.8 0.8 46
2019-03-17 19:00:00 21.1 21 Noroeste 37 Oeste 0 1014.4 0 34
2019-03-17 18:00:00 24 28 Oeste 41 Noroeste 0 1014 -1.4 23
2019-03-17 17:00:00 25.5 30 Oeste 42 Noroeste 0 1014 -2.6 19
2019-03-17 16:00:00 24.6 14 Sudoeste 28 Sur 0 1014.4 -3.1 35
2019-03-17 15:00:00 23.4 14 Sudoeste 24 Sudoeste 0 1015.4 -2.8 40
2019-03-17 14:00:00 22.3 9 Sudoeste 21 Sudoeste 0 1016.6 -1.9 42
2019-03-17 13:00:00 20.1 7 Sudoeste 13 Sudoeste 0 1017.5 -1.1 56
2019-03-17 12:00:00 17.9 6 Sudoeste 17 Sudoeste 0 1018.2 0 65
2019-03-17 11:00:00 14.6 2 Sudoeste 9 Este 0 1018.5 1.3 78
2019-03-17 10:00:00 10.9 6 Norte 18 Norte 0 1018.6 2 95
2019-03-17 09:00:00 11 5 Norte 18 Norte 0 1018.2 2 96
2019-03-17 08:00:00 11.4 4 Oeste 11 Sudoeste 0 1017.2 1.4 95
2019-03-17 07:00:00 11.3 6 Oeste 13 Sudoeste 0 1016.6 0.8 96
2019-03-17 06:00:00 11.2 9 Sur 13 Sur 0 1016.2 0.2 100
2019-03-17 05:00:00 11.1 9 Sur 17 Sur 0 1015.8 -0.3 100
2019-03-17 04:00:00 11 6 Sudeste 9 Este 0 1015.8 -0.6 100
2019-03-17 03:00:00 11.1 0 Calma 15 Sur 0 1016 -0.4 100
2019-03-17 02:00:00 11.1 10 Sur 17 Sur 0 1016.1 -0.3 99
2019-03-17 01:00:00 11.4 5 Sur 17 Sur 0 1016.4 0 88
2019-03-17 00:00:00 13.5 13 Sur 18 Sur 0 1016.4 0.4 81
2019-03-16 23:00:00 14.3 11 Sudoeste 15 Sudoeste 0 1016.4 1.1 76
2019-03-16 22:00:00 15.7 12 Sudoeste 22 Sudoeste 0 1016.4 1.4 70
2019-03-16 21:00:00 17.2 13 Sudoeste 24 Sudoeste 0 1016 1.3 67
2019-03-16 20:00:00 18.9 12 Sudoeste 22 Sudoeste 0 1015.3 0.4 58
2019-03-16 19:00:00 22.2 18 Sudoeste 30 Sudoeste 0 1015 -0.3 42
2019-03-16 18:00:00 25.3 13 Oeste 24 Sudoeste 0 1014.7 -1.2 28
2019-03-16 17:00:00 25.4 17 Sudoeste 28 Sudoeste 0 1014.9 -2 28
2019-03-16 16:00:00 25.9 13 Sudoeste 26 Oeste 0 1015.3 -2.3 25
2019-03-16 15:00:00 25.5 11 Oeste 22 Oeste 0 1015.9 -2.2 26
2019-03-16 14:00:00 24.9 13 Sudoeste 21 Sudoeste 0 1016.9 -1.7 23
2019-03-16 13:00:00 23.2 4 Norte 11 Sudoeste 0 1017.6 -1.3 26
2019-03-16 12:00:00 21.6 3 Nordeste 13 Nordeste 0 1018.1 -0.6 30
2019-03-16 11:00:00 18.9 6 Nordeste 15 Nordeste 0 1018.6 0.3 36
2019-03-16 10:00:00 15 12 Nordeste 17 Nordeste 0 1018.9 0.7 49
2019-03-16 09:00:00 10 6 Norte 9 Norte 0 1018.7 0.6 67
2019-03-16 08:00:00 6.4 5 Norte 8 Nordeste 0 1018.3 0.4 76
2019-03-16 07:00:00 6.1 0 Calma 8 Nordeste 0 1018.2 0.1 81
2019-03-16 06:00:00 7.1 0 Calma 5 Nordeste 0 1018.1 -0.7 76
2019-03-16 05:00:00 7.5 5 Nordeste 8 Nordeste 0 1017.9 -1.2 73
2019-03-16 04:00:00 8.1 3 Sudeste 11 Nordeste 0 1018.1 -1.3 74
2019-03-16 03:00:00 8.7 0 Calma 5 Nordeste 0 1018.8 -0.8 78
2019-03-16 02:00:00 10.3 3 Nordeste 8 Este 0 1019.1 -0.5 66
2019-03-16 01:00:00 10.9 4 Este 9 Norte 0 1019.4 0.3 66
2019-03-16 00:00:00 12.3 3 Este 11 Este 0 1019.6 1 61
2019-03-15 23:00:00 14.6 0 Calma 8 Sudoeste 0 1019.6 1.2 47
2019-03-15 22:00:00 15.2 4 Nordeste 9 Este 0 1019.1 1 48
2019-03-15 21:00:00 17.4 6 Este 9 Este 0 1018.6 0.5 42
2019-03-15 20:00:00 21 4 Nordeste 13 Nordeste 0 1018.4 0.2 29
2019-03-15 19:00:00 25 11 Nordeste 18 Nordeste 0 1018.1 -0.6 22
2019-03-15 18:00:00 26.1 12 Norte 21 Norte 0 1018.1 -1.2 21
2019-03-15 17:00:00 26.5 9 Nordeste 21 Nordeste 0 1018.2 -2.1 20
2019-03-15 16:00:00 26.5 7 Nordeste 15 Nordeste 0 1018.7 -2.3 21
2019-03-15 15:00:00 25.8 8 Nordeste 17 Nordeste 0 1019.3 -2.5 21
2019-03-15 14:00:00 24.8 11 Este 26 Nordeste 0 1020.3 -1.7 25
2019-03-15 13:00:00 22.5 14 Este 26 Este 0 1021 -1.2 26
2019-03-15 12:00:00 20.8 16 Este 28 Este 0 1021.8 -0.4 28
2019-03-15 11:00:00 18.6 19 Este 35 Este 0 1022 -0.1 30
2019-03-15 10:00:00 15.4 18 Nordeste 30 Este 0 1022.2 0.3 41
2019-03-15 09:00:00 11.6 18 Nordeste 28 Nordeste 0 1022.2 0.5 54
2019-03-15 08:00:00 7.9 13 Nordeste 18 Nordeste 0 1022.1 0.6 70
2019-03-15 07:00:00 7.9 8 Nordeste 17 Nordeste 0 1021.9 0.2 68
2019-03-15 06:00:00 9.1 12 Nordeste 21 Nordeste 0 1021.7 -0.3 62
2019-03-15 05:00:00 9.8 8 Nordeste 15 Nordeste 0 1021.5 -0.7 60
2019-03-15 04:00:00 10.3 4 Nordeste 17 Nordeste 0 1021.7 -0.8 58
2019-03-15 03:00:00 9.9 8 Este 15 Este 0 1022 -0.7 62
2019-03-15 02:00:00 10.1 8 Nordeste 13 Nordeste 0 1022.2 -0.5 61
2019-03-15 01:00:00 10.7 3 Nordeste 11 Nordeste 0 1022.5 0.3 60
2019-03-15 00:00:00 11.6 11 Nordeste 17 Nordeste 0 1022.7 0.7 57
2019-03-14 23:00:00 12.9 14 Nordeste 18 Nordeste 0 1022.7 0.8 49
2019-03-14 22:00:00 13 2 Nordeste 9 Nordeste 0 1022.2 0.4 50
2019-03-14 21:00:00 14 3 Nordeste -- -- 0 1022 0.1 49
2019-03-14 20:00:00 17.6 9 Este 15 Este 0 1021.9 -0.2 31
2019-03-14 19:00:00 21.5 10 Este 28 Este 0 1021.8 -0.4 20
2019-03-14 18:00:00 22.4 17 Este 28 Nordeste 0 1021.9 -0.6 19
2019-03-14 17:00:00 22.7 18 Nordeste 30 Nordeste 0 1022.1 -1.4 21
2019-03-14 16:00:00 22.7 16 Nordeste 28 Nordeste 0 1022.2 -2.1 25
2019-03-14 15:00:00 22.1 15 Este 33 Nordeste 0 1022.5 -2.6 29
2019-03-14 14:00:00 21.2 22 Nordeste 37 Este 0 1023.5 -1.7 30
2019-03-14 13:00:00 20.5 21 Este 35 Este 0 1024.3 -0.9 29
2019-03-14 12:00:00 18.4 27 Nordeste 41 Nordeste 0 1025.1 0.4 33
2019-03-14 11:00:00 16.7 26 Nordeste 42 Nordeste 0 1025.2 1 34
2019-03-14 10:00:00 15.5 25 Este 45 Este 0 1025.2 1.2 36
2019-03-14 09:00:00 12.6 19 Nordeste 28 Nordeste 0 1024.7 1.1 47
2019-03-14 08:00:00 10.2 11 Nordeste 28 Nordeste 0 1024.2 0.7 56
2019-03-14 07:00:00 8.4 15 Nordeste 32 Nordeste 0 1024 0.4 70
2019-03-14 06:00:00 10.6 17 Nordeste 24 Nordeste 0 1023.6 -0.3 54
2019-03-14 05:00:00 10.2 14 Nordeste 21 Este 0 1023.5 -0.1 65
2019-03-14 04:00:00 11.4 14 Nordeste 21 Nordeste 0 1023.6 0.3 69
2019-03-14 03:00:00 11.3 13 Este 21 Este 0 1023.9 0.8 69
2019-03-14 02:00:00 13.3 14 Nordeste 24 Nordeste 0 1023.6 0.6 55
2019-03-14 01:00:00 13.2 16 Nordeste 22 Nordeste 0 1023.3 0.6 55
2019-03-14 00:00:00 12.4 8 Nordeste 13 Nordeste 0 1023.1 0.7 62
2019-03-13 23:00:00 13.8 4 Nordeste 18 Norte 0 1023 1 61
2019-03-13 22:00:00 14.7 6 Nordeste 15 Norte 0 1022.7 0.9 56
2019-03-13 21:00:00 16.1 10 Norte 17 Norte 0 1022.4 1 48
2019-03-13 20:00:00 17.7 10 Noroeste 28 Norte 0 1022 0.8 42
2019-03-13 19:00:00 20 17 Norte 28 Norte 0 1021.8 0.6 34
2019-03-13 18:00:00 20.9 21 Norte 35 Norte 0 1021.4 -0.3 29
2019-03-13 17:00:00 21.5 21 Norte 32 Nordeste 0 1021.2 -1.4 30
2019-03-13 16:00:00 21.4 17 Nordeste 32 Norte 0 1021.2 -2.2 34
2019-03-13 15:00:00 20.5 12 Norte 24 Norte 0 1021.7 -1.7 43
2019-03-13 14:00:00 19.8 16 Norte 30 Norte 0 1022.6 -1.2 46
2019-03-13 13:00:00 18.6 14 Norte 33 Nordeste 0 1023.4 -0.4 54
2019-03-13 12:00:00 17.4 10 Norte 30 Norte 0 1023.4 0.1 60
2019-03-13 11:00:00 15.9 10 Norte 21 Norte 0 1023.8 1.3 66
2019-03-13 10:00:00 14.7 9 Norte 15 Nordeste 0 1023.8 1.8 70
2019-03-13 09:00:00 12.5 5 Norte 13 Norte 0 1023.3 1.8 79
2019-03-13 08:00:00 8.8 0 Calma -- -- 0 1022.5 1.2 92
2019-03-13 07:00:00 8.4 0 Calma -- -- 0 1022 0.5 92
2019-03-13 06:00:00 9.1 0 Calma 4 Este 0 1021.5 -0.3 90
2019-03-13 05:00:00 10.2 3 Sudeste 9 Nordeste 0 1021.3 -0.7 88
2019-03-13 04:00:00 11.5 7 Norte 15 Norte 0 1021.5 -0.6 82
2019-03-13 03:00:00 11.9 3 Noroeste 17 Noroeste 0 1021.8 -0.4 81
2019-03-13 02:00:00 12.3 13 Oeste 21 Oeste 0 1022 -0.3 82
2019-03-13 01:00:00 13.4 10 Oeste 13 Oeste 0 1022.1 0 82
2019-03-13 00:00:00 13.9 4 Sudoeste 9 Oeste 0 1022.2 0.7 78
2019-03-12 23:00:00 14.2 9 Sudeste 13 Sudeste 0 1022.3 1.2 76
2019-03-12 22:00:00 16.5 0 Calma 13 Sudoeste 0 1022.1 1.4 66
2019-03-12 21:00:00 18.9 10 Sudoeste 22 Sudoeste 0 1021.5 0.8 57
2019-03-12 20:00:00 21.2 14 Sudoeste 24 Oeste 0 1021.1 0.2 48
2019-03-12 19:00:00 23.5 17 Oeste 28 Oeste 0 1020.7 -0.7 39
2019-03-12 18:00:00 25.2 19 Oeste 28 Oeste 0 1020.7 -1.5 41
2019-03-12 17:00:00 25.4 14 Sudoeste 24 Sudoeste 0 1020.9 -2.3 41
2019-03-12 16:00:00 25.4 12 Oeste 24 Sudoeste 0 1021.4 -2.4 40
2019-03-12 15:00:00 24.3 10 Sudoeste 22 Sudoeste 0 1022.2 -2.2 42
2019-03-12 14:00:00 22.9 4 Noroeste 15 Sudoeste 0 1023.2 -1.6 47
2019-03-12 13:00:00 21.8 6 Oeste 13 Sudoeste 0 1023.8 -1.2 49
2019-03-12 12:00:00 20.1 3 Nordeste 15 Norte 0 1024.4 -0.4 53
2019-03-12 11:00:00 18.2 7 Nordeste 13 Nordeste 0 1024.8 0.5 61
2019-03-12 10:00:00 15.3 6 Nordeste 11 Norte 0 1025 0.8 73
2019-03-12 09:00:00 12.3 5 Norte 11 Norte 0 1024.8 0.6 84
2019-03-12 08:00:00 10.2 4 Norte 8 Norte 0 1024.3 0.4 91
2019-03-12 07:00:00 9.9 5 Este 11 Este 0 1024.2 0.4 92
2019-03-12 06:00:00 10.5 7 Este 9 Este 0 1024.2 0.1 93
2019-03-12 05:00:00 11.4 5 Nordeste 8 Nordeste 0 1023.9 0 91
2019-03-12 04:00:00 12.5 0 Calma 15 Sudoeste 0 1023.8 -0.2 87
2019-03-12 03:00:00 14 2 Sudoeste 15 Sudoeste 0 1024.1 0.4 83
2019-03-12 02:00:00 13.7 3 Sur 11 Sur 0 1023.9 0 84
2019-03-12 01:00:00 16.2 9 Sur 18 Sur 0 1024 0.6 65
2019-03-12 00:00:00 17.6 15 Nordeste 24 Nordeste 0 1023.7 0.9 58
2019-03-11 23:00:00 17.9 12 Nordeste 15 Nordeste 0 1023.9 1.8 57
2019-03-11 22:00:00 18.2 7 Sudeste 17 Noroeste 0 1023.4 1.8 66
2019-03-11 21:00:00 20.9 9 Oeste 15 Oeste 0 1022.8 1.3 53
2019-03-11 20:00:00 22.7 0 Calma 5 Oeste 0 1022.1 0.7 50
2019-03-11 19:00:00 26.9 0 Calma 9 Sudoeste 0 1021.6 -0.1 34
2019-03-11 18:00:00 27.7 2 Norte 17 Nordeste 0 1021.5 -0.6 30
2019-03-11 17:00:00 27.6 4 Norte 15 Norte 0 1021.4 -1.7 30
2019-03-11 16:00:00 27.2 8 Norte 13 Norte 0 1021.7 -1.8 31
2019-03-11 15:00:00 26.4 5 Nordeste 17 Nordeste 0 1022.1 -1.9 36
2019-03-11 14:00:00 24.9 7 Este 17 Este 0 1023.1 -1.3 41
2019-03-11 13:00:00 23.5 4 Nordeste 17 Nordeste 0 1023.5 -0.9 45
2019-03-11 12:00:00 21.9 9 Este 17 Este 0 1024 -0.2 53
2019-03-11 11:00:00 19.8 13 Nordeste 21 Nordeste 0 1024.4 0.7 60
2019-03-11 10:00:00 17.9 9 Nordeste 13 Nordeste 0 1024.4 1.4 68
2019-03-11 09:00:00 13.8 4 Este 9 Nordeste 0 1024.2 1.2 83
2019-03-11 08:00:00 10 4 Norte 9 Nordeste 0 1023.7 1.1 93
2019-03-11 07:00:00 10.4 0 Calma 4 Norte 0 1023 0.4 93
2019-03-11 06:00:00 10.7 5 Nordeste 9 Nordeste 0 1023 0 91
2019-03-11 05:00:00 10.3 0 Calma 4 Noroeste 0 1022.6 -0.8 87
2019-03-11 04:00:00 10.7 0 Calma 11 Este 0 1022.6 -1 88
2019-03-11 03:00:00 10.9 0 Calma 4 Norte 0 1023 -1 85
2019-03-11 02:00:00 11.5 0 Calma 5 Sudeste 0 1023.4 -0.6 82
2019-03-11 01:00:00 12.5 0 Calma 8 Nordeste 0 1023.6 0.1 79
2019-03-11 00:00:00 13.3 0 Calma 8 Nordeste 0 1024 0.6 77
2019-03-10 23:00:00 13.9 6 Este 9 Nordeste 0 1024 1 75
2019-03-10 22:00:00 14.6 2 Sudeste 8 Sudeste 0 1023.5 0.8 75
2019-03-10 21:00:00 17.2 0 Calma 5 Oeste 0 1023.4 0.7 63
2019-03-10 20:00:00 20.5 2 Sudoeste 8 Sudoeste 0 1023 -0.2 52
2019-03-10 19:00:00 25.2 0 Calma 8 Sudoeste 0 1022.7 -0.9 34
2019-03-10 18:00:00 26.3 0 Calma 9 Oeste 0 1022.7 -1.7 30
2019-03-10 17:00:00 25.3 7 Este 13 Este 0 1023.2 -2.4 30
2019-03-10 16:00:00 25.4 5 Nordeste 13 Este 0 1023.6 -2.7 30
2019-03-10 15:00:00 24.2 6 Nordeste 18 Nordeste 0 1024.4 -2.4 31
2019-03-10 14:00:00 23 10 Nordeste 17 Nordeste 0 1025.6 -1.7 34
2019-03-10 13:00:00 21.5 7 Este 18 Este 0 1026.3 -1 40
2019-03-10 12:00:00 19.9 13 Nordeste 21 Este 0 1026.8 -0.2 44
2019-03-10 11:00:00 17.4 12 Este 18 Este 0 1027.3 0.5 53
2019-03-10 10:00:00 13.9 12 Norte 17 Nordeste 0 1027.3 0.7 70
2019-03-10 09:00:00 10.4 8 Nordeste 13 Nordeste 0 1027 1 79
2019-03-10 08:00:00 7.7 8 Nordeste 13 Nordeste 0 1026.8 0.6 86
2019-03-10 07:00:00 8 6 Nordeste 11 Nordeste 0 1026.6 0.3 87
2019-03-10 06:00:00 7.6 8 Nordeste 11 Nordeste 0 1026 -0.5 88
2019-03-10 05:00:00 8.3 6 Nordeste 13 Nordeste 0 1026.2 -0.4 87
2019-03-10 04:00:00 8.7 0 Calma 11 Nordeste 0 1026.3 -0.8 88
2019-03-10 03:00:00 9.2 7 Sur 11 Sudeste 0 1026.5 -0.8 86
2019-03-10 02:00:00 9.9 8 Sudeste 9 Sudeste 0 1026.6 -0.5 82
2019-03-10 01:00:00 11.3 6 Sudeste 17 Sudoeste 0 1027.1 0.6 75
2019-03-10 00:00:00 13.1 10 Sur 22 Sudoeste 0 1027.3 1.3 66
2019-03-09 23:00:00 12.3 4 Sudeste 5 Sudeste 0 1027.1 1.5 72
2019-03-09 22:00:00 13.8 4 Noroeste 9 Noroeste 0 1026.5 1.3 64
2019-03-09 21:00:00 14.7 6 Este -- -- 0 1026 0.9 65
2019-03-09 20:00:00 18.5 2 Norte 9 Este 0 1025.6 0.2 41
2019-03-09 19:00:00 21.4 8 Este 17 Nordeste 0 1025.2 -0.4 33
2019-03-09 18:00:00 22.6 12 Este 24 Este 0 1025.1 -0.8 26
2019-03-09 17:00:00 23 9 Este 26 Nordeste 0 1025.4 -1.2 29
2019-03-09 16:00:00 22.7 13 Este 24 Norte 0 1025.6 -1.8 32
2019-03-09 15:00:00 22.3 10 Este 22 Nordeste 0 1025.9 -1.9 34
2019-03-09 14:00:00 21.3 10 Nordeste 24 Este 0 1026.6 -1.4 41
2019-03-09 13:00:00 20 13 Nordeste 26 Este 0 1027.4 -0.3 46
2019-03-09 12:00:00 18.5 17 Nordeste 30 Este 0 1027.8 0.9 52
2019-03-09 11:00:00 16.3 22 Nordeste 33 Nordeste 0 1028 1.9 59
2019-03-09 10:00:00 13.7 19 Nordeste 32 Este 0 1027.7 2.2 72
2019-03-09 09:00:00 10 14 Nordeste 18 Nordeste 0 1026.9 2.1 89
2019-03-09 08:00:00 7.7 8 Norte 9 Nordeste 0 1026.1 1.6 92
2019-03-09 07:00:00 7.8 8 Nordeste 17 Nordeste 0 1025.5 0.9 91
2019-03-09 06:00:00 8 10 Nordeste 11 Nordeste 0 1024.8 -0.1 91
2019-03-09 05:00:00 7.6 7 Este 11 Este 0 1024.5 0 92
2019-03-09 04:00:00 8.5 4 Este 9 Sudeste 0 1024.6 0.5 90
2019-03-09 03:00:00 8.7 8 Sudeste 13 Sudeste 0 1024.9 1 89
2019-03-09 02:00:00 11.4 9 Nordeste 13 Nordeste 0 1024.5 1.3 78
2019-03-09 01:00:00 11 10 Norte 13 Norte 0 1024.1 1.6 81
2019-03-09 00:00:00 10.8 3 Nordeste 9 Este 0 1023.9 2 85
2019-03-08 23:00:00 12.4 6 Nordeste 13 Norte 0 1023.2 2.2 78
2019-03-08 22:00:00 13 9 Norte 13 Norte 0 1022.5 2.6 78
2019-03-08 21:00:00 14.1 2 Noroeste 9 Nordeste 0 1021.9 2.7 70
2019-03-08 20:00:00 15.5 5 Nordeste 11 Norte 0 1021 1.8 67
2019-03-08 19:00:00 17.6 11 Norte 15 Norte 0 1019.9 1 58
2019-03-08 18:00:00 18.9 7 Nordeste 17 Nordeste 0 1019.2 0.2 51
2019-03-08 17:00:00 18.6 8 Nordeste 30 Este 0 1019.2 -0.5 51
2019-03-08 16:00:00 18.5 7 Norte 21 Norte 0 1018.9 -0.8 56
2019-03-08 15:00:00 18.4 8 Este 17 Este 0 1019 -0.4 59
2019-03-08 14:00:00 16 10 Nordeste 22 Nordeste 0 1019.7 0.4 69
2019-03-08 13:00:00 15.7 9 Nordeste 28 Norte 0 1019.7 0.9 70
2019-03-08 12:00:00 15.2 10 Nordeste 18 Nordeste 0 1019.4 1.7 73
2019-03-08 11:00:00 13.6 14 Nordeste 22 Nordeste 0 1019.3 2.9 81
2019-03-08 10:00:00 12.1 13 Nordeste 18 Nordeste 0 1018.8 2.6 89
2019-03-08 09:00:00 11.3 11 Nordeste 15 Nordeste 0 1017.7 2.2 93
2019-03-08 08:00:00 10.7 10 Nordeste 15 Nordeste 0 1016.4 1.1 95
2019-03-08 07:00:00 11.1 9 Nordeste 11 Nordeste 0 1016.2 0.6 96
2019-03-08 06:00:00 11.2 6 Norte 9 Norte 0 1015.5 -0.1 95
2019-03-08 05:00:00 11.2 0 Calma 11 Noroeste 0 1015.3 -0.2 91
2019-03-08 04:00:00 11.4 4 Oeste 13 Oeste 0 1015.6 -0.2 87
2019-03-08 03:00:00 11.4 8 Sudeste 13 Sur 0 1015.6 0 87
2019-03-08 02:00:00 11.4 9 Sur 15 Sur 0 1015.5 -0.1 86
2019-03-08 01:00:00 11.5 8 Sur 17 Sur 0 1015.8 0.5 84
2019-03-08 00:00:00 11.8 11 Sur 15 Sur 0 1015.6 0.4 84
2019-03-07 23:00:00 11.7 10 Sur 15 Sur 0 1015.6 0.9 85
2019-03-07 22:00:00 11.6 5 Sur 21 Sudoeste 0 1015.3 1 81
2019-03-07 21:00:00 12.9 15 Sudoeste 26 Sudoeste 0 1015.2 1.5 74
2019-03-07 20:00:00 13.7 17 Sudoeste 32 Sudoeste 0 1014.7 0.7 68
2019-03-07 19:00:00 15.1 24 Sudoeste 35 Sudoeste 0 1014.3 -0.4 61
2019-03-07 18:00:00 16.2 15 Sudoeste 28 Sudoeste 0 1013.7 -1.4 56
2019-03-07 17:00:00 17.4 17 Sudoeste 26 Sudoeste 0 1014 -2 52
2019-03-07 16:00:00 16.6 13 Sudoeste 24 Oeste 0 1014.7 -2.2 56
2019-03-07 15:00:00 17.6 16 Oeste 24 Oeste 0 1015.1 -2.5 46
2019-03-07 14:00:00 17.4 11 Sudoeste 21 Sudoeste 0 1016 -2.2 49
2019-03-07 13:00:00 15.7 9 Noroeste 21 Noroeste 0 1016.9 -0.9 55
2019-03-07 12:00:00 14.7 4 Oeste 11 Sudoeste 0 1017.6 0.7 60
2019-03-07 11:00:00 13.1 5 Oeste 9 Sudoeste 0 1018.2 1.8 73
2019-03-07 10:00:00 11.3 3 Noroeste 8 Noroeste 0 1017.8 1.6 82
2019-03-07 09:00:00 8.1 0 Calma 9 Sur 0 1016.9 1.3 95
2019-03-07 08:00:00 4.5 6 Sudeste 9 Sudeste 0 1016.4 1 96
2019-03-07 07:00:00 5.4 0 Calma 4 Sudeste 0 1016.2 0.9 96
2019-03-07 06:00:00 5.6 2 Este 8 Este 0 1015.6 0 94
2019-03-07 05:00:00 6.9 0 Calma 4 Noroeste 0 1015.4 0.2 93
2019-03-07 04:00:00 7.3 0 Calma 8 Nordeste 0 1015.3 -0.1 92
2019-03-07 03:00:00 8.3 5 Norte 21 Noroeste 0 1015.6 0.1 88
2019-03-07 02:00:00 9.2 13 Noroeste 18 Noroeste 0 1015.2 0.1 87
2019-03-07 01:00:00 10.1 15 Oeste 21 Oeste 0 1015.4 1.4 83
2019-03-07 00:00:00 12.1 17 Oeste 24 Oeste 0 1015.5 2.4 73
2019-03-06 23:00:00 11.1 10 Oeste 26 Oeste 0 1015.1 3 76
2019-03-06 22:00:00 12.1 21 Oeste 30 Oeste 0 1014 3 68
2019-03-06 21:00:00 12.6 19 Oeste 26 Oeste 0 1013.1 3.1 61
2019-03-06 20:00:00 13.5 16 Oeste 33 Oeste 0 1012.1 3 56
2019-03-06 19:00:00 15.4 22 Oeste 41 Oeste 0 1011 2.7 47
2019-03-06 18:00:00 16.7 29 Oeste 50 Oeste 0 1010 2.7 52
2019-03-06 17:00:00 16.8 32 Oeste 50 Oeste 0 1009.1 2 59
2019-03-06 16:00:00 16.6 38 Oeste 52 Oeste 0 1008.3 0.9 64
2019-03-06 15:00:00 15.8 36 Oeste 55 Oeste 0 1007.3 -0.5 81
2019-03-06 14:00:00 17.8 44 Oeste 65 Oeste 0.5 1007.1 -0.4 72
2019-03-06 13:00:00 16.4 42 Sudoeste 61 Sudoeste 0 1007.4 -0.3 81
2019-03-06 12:00:00 15.6 53 Sudoeste 80 Sudoeste 0.4 1007.8 0.2 87
2019-03-06 11:00:00 16.4 39 Sudoeste 59 Sudoeste 0.1 1007.5 0.2 87
2019-03-06 10:00:00 15.3 36 Sudoeste 52 Sudoeste 2.5 1007.7 0.1 92
2019-03-06 09:00:00 15.2 30 Sudoeste 55 Sudoeste 0.9 1007.6 -0.6 88
2019-03-06 08:00:00 14.6 22 Sur 37 Sur 0 1007.3 -0.8 88
2019-03-06 07:00:00 14.5 20 Sur 37 Sur 0 1007.6 -1.1 89
2019-03-06 06:00:00 14.1 17 Sur 30 Sur 0 1008.2 -1.6 91
2019-03-06 05:00:00 14.3 14 Sur 30 Sudoeste 0 1008.1 -1.9 90
2019-03-06 04:00:00 14.1 14 Sur 28 Sudoeste 0 1008.7 -1.7 94
2019-03-06 03:00:00 14.5 18 Sudoeste 28 Sudoeste 0 1009.8 -1.2 95
2019-03-06 02:00:00 14.5 11 Sudoeste 17 Sudoeste 0 1010 -1.2 95
2019-03-06 01:00:00 14.5 12 Sudoeste 17 Sudoeste 0 1010.4 -0.9 95
2019-03-06 00:00:00 14.8 9 Sudoeste 15 Sudoeste 0 1011 -0.6 93
2019-03-05 23:00:00 15 8 Sudoeste 11 Sur 0 1011.2 -0.6 91
2019-03-05 22:00:00 15.4 8 Sudoeste 13 Sudoeste 0 1011.3 -0.7 89
2019-03-05 21:00:00 16 8 Sur 15 Sudoeste 0 1011.6 -0.8 86
2019-03-05 20:00:00 16.5 8 Sudoeste 13 Sudoeste 0 1011.8 -1.4 83
2019-03-05 19:00:00 17.4 7 Sudoeste 17 Oeste 0 1012 -1.8 80
2019-03-05 18:00:00 18.1 14 Sudoeste 24 Sudoeste 0 1012.4 -1.8 77
2019-03-05 17:00:00 17.6 16 Sudoeste 28 Sudoeste 0 1013.2 -2.1 81
2019-03-05 16:00:00 17.7 18 Sudoeste 33 Sudoeste 0 1013.8 -2.3 84
2019-03-05 15:00:00 17.6 24 Sudoeste 33 Sudoeste 0 1014.2 -2.5 84
2019-03-05 14:00:00 16.3 16 Sudoeste 28 Sudoeste 0.6 1015.3 -1.6 93
2019-03-05 13:00:00 17.3 14 Sudoeste 21 Sudoeste 0 1016.1 -1.1 82
2019-03-05 12:00:00 17.2 10 Sudoeste 21 Sudoeste 0 1016.7 -0.2 80
2019-03-05 11:00:00 16.9 10 Sur 17 Sudoeste 0 1016.9 0.4 82
2019-03-05 10:00:00 15.5 7 Sudoeste 11 Sudoeste 0 1017.2 0.8 90
2019-03-05 09:00:00 14.2 6 Sudoeste 13 Sur 0 1016.9 0.7 95
2019-03-05 08:00:00 14.1 9 Sudoeste 13 Sudoeste 0 1016.5 0.3 94
2019-03-05 07:00:00 14.5 9 Oeste 15 Oeste 0 1016.4 -0.1 95
2019-03-05 06:00:00 14.7 11 Sudoeste 15 Sudoeste 0 1016.2 -0.8 95
2019-03-05 05:00:00 14.7 10 Sudoeste 18 Sudoeste 0 1016.2 -1.5 97
2019-03-05 04:00:00 14.9 13 Sudoeste 21 Sudoeste 0 1016.5 -1.4 96
2019-03-05 03:00:00 15.1 13 Sudoeste 21 Sudoeste 0 1017 -1.3 95
2019-03-05 02:00:00 15.3 16 Sudoeste 26 Sudoeste 0 1017.7 -0.7 95
2019-03-05 01:00:00 15.2 12 Sudoeste 24 Sudoeste 0 1017.9 -0.4 94
2019-03-05 00:00:00 15.4 14 Sudoeste 26 Sudoeste 0 1018.3 0.1 91
2019-03-04 23:00:00 15.8 17 Sudoeste 26 Sudoeste 0 1018.4 0.6 87
2019-03-04 22:00:00 15.9 14 Sudoeste 22 Oeste 0 1018.3 0.7 85
2019-03-04 21:00:00 15.7 12 Sudoeste 28 Sudoeste 0 1018.2 0.5 83
2019-03-04 20:00:00 15.9 19 Sudoeste 35 Sudoeste 0 1017.8 0 81
2019-03-04 19:00:00 16.9 26 Sudoeste 37 Sudoeste 0 1017.6 -0.5 77
2019-03-04 18:00:00 18.2 13 Sudoeste 24 Sudoeste 0 1017.7 -0.9 70
2019-03-04 17:00:00 18.6 15 Oeste 26 Sudoeste 0 1017.8 -1.7 68
2019-03-04 16:00:00 18.2 9 Sudoeste 30 Sudoeste 0 1018.1 -2.3 69
2019-03-04 15:00:00 18.8 20 Sudoeste 30 Sudoeste 0 1018.6 -2.2 66
2019-03-04 14:00:00 19.1 9 Sudoeste 22 Oeste 0 1019.5 -1.5 64
2019-03-04 13:00:00 17.2 11 Sudoeste 18 Sudoeste 0 1020.4 -0.3 69
2019-03-04 12:00:00 15.3 6 Sudeste 13 Sudoeste 0 1020.8 0.5 79
2019-03-04 11:00:00 12.3 7 Noroeste 18 Noroeste 0 1021 1.2 93
2019-03-04 10:00:00 12.6 5 Sudoeste 13 Norte 0 1020.7 1.5 94
2019-03-04 09:00:00 11.4 8 Noroeste 13 Noroeste 0 1020.3 1.4 96
2019-03-04 08:00:00 12.2 7 Oeste 13 Sudoeste 0 1019.8 0.8 98
2019-03-04 07:00:00 12.1 7 Sur 13 Sur 0 1019.2 0.2 100
2019-03-04 06:00:00 11.9 8 Sudoeste 18 Sudoeste 0 1018.9 -0.4 100
2019-03-04 05:00:00 11.9 14 Sudoeste 21 Sudoeste 0 1019 -0.5 100
2019-03-04 04:00:00 11.3 8 Sur 21 Sur 0 1019 -0.4 99
2019-03-04 03:00:00 11.3 15 Sur 22 Sur 0 1019.3 0 96
2019-03-04 02:00:00 12 0 Calma 11 Sur 0 1019.5 0.2 87
2019-03-04 01:00:00 12.6 3 Sur 13 Sur 0 1019.4 0.3 84
2019-03-04 00:00:00 13.7 7 Sur 11 Sudoeste 0 1019.3 0.6 75
2019-03-03 23:00:00 14.5 7 Sudoeste 15 Sur 0 1019.3 1.1 73
2019-03-03 22:00:00 15.8 10 Sudoeste 21 Sudoeste 0 1019.1 1.2 69
2019-03-03 21:00:00 17.6 10 Sudoeste 26 Oeste 0 1018.7 1.1 57
2019-03-03 20:00:00 19.6 16 Oeste 26 Oeste 0 1018.2 0.4 47
2019-03-03 19:00:00 21.8 12 Sudoeste 21 Oeste 0 1017.9 -0.4 40
2019-03-03 18:00:00 24.2 10 Oeste 21 Oeste 0 1017.6 -1.5 32
2019-03-03 17:00:00 24.7 10 Sudoeste 18 Sudoeste 0 1017.8 -2.3 31
2019-03-03 16:00:00 24.9 7 Sudoeste 13 Sudoeste 0 1018.3 -2.8 30
2019-03-03 15:00:00 24 3 Norte 13 Nordeste 0 1019.1 -2.6 34
2019-03-03 14:00:00 22.5 3 Este 15 Este 0 1020.1 -2 42
2019-03-03 13:00:00 20.2 9 Nordeste 17 Nordeste 0 1021.1 -1.2 49
2019-03-03 12:00:00 18.4 11 Nordeste 21 Nordeste 0 1021.7 -0.3 55
2019-03-03 11:00:00 15.9 13 Nordeste 18 Nordeste 0 1022.1 0.8 63
2019-03-03 10:00:00 12.4 14 Nordeste 21 Nordeste 0 1022.3 1.4 76
2019-03-03 09:00:00 8.8 8 Nordeste 15 Nordeste 0 1022 1.5 89
2019-03-03 08:00:00 7.1 7 Norte 13 Nordeste 0 1021.3 0.8 93
2019-03-03 07:00:00 7.7 8 Nordeste 15 Norte 0 1020.9 0.3 93
2019-03-03 06:00:00 7.4 6 Nordeste 11 Nordeste 0 1020.5 -0.5 94
2019-03-03 05:00:00 7.6 8 Norte 9 Norte 0 1020.5 -0.4 94
2019-03-03 04:00:00 8.4 8 Nordeste 11 Nordeste 0 1020.6 -0.4 94
2019-03-03 03:00:00 8.7 0 Calma 8 Este 0 1021 -0.2 94
2019-03-03 02:00:00 9.3 5 Este 11 Sur 0 1020.9 -0.7 93
2019-03-03 01:00:00 9.9 2 Sur 11 Sudeste 0 1021 -0.4 91
2019-03-03 00:00:00 10.9 6 Este 9 Sudeste 0 1021.2 0.1 89
2019-03-02 23:00:00 12.9 7 Sur 13 Sur 0 1021.6 0.9 86
2019-03-02 22:00:00 15.3 9 Sudoeste 22 Sudoeste 0 1021.4 1 80
2019-03-02 21:00:00 17.2 15 Sudoeste 22 Sur 0 1021.1 0.6 68
2019-03-02 20:00:00 17.5 8 Sur 11 Sur 0 1020.7 0 56
2019-03-02 19:00:00 20.9 5 Sur 11 Norte 0 1020.4 -0.6 44
2019-03-02 18:00:00 22.1 6 Noroeste 13 Norte 0 1020.5 -1.3 41
2019-03-02 17:00:00 22.4 4 Noroeste 11 Noroeste 0 1020.7 -1.7 42
2019-03-02 16:00:00 21.6 4 Oeste 17 Oeste 0 1021 -2.3 46
2019-03-02 15:00:00 20.3 6 Oeste 13 Oeste 0 1021.8 -1.9 52
2019-03-02 14:00:00 19 3 Nordeste 9 Norte 0 1022.4 -1.5 56
2019-03-02 13:00:00 17.6 2 Norte 9 Nordeste 0 1023.3 -0.2 63
2019-03-02 12:00:00 14.9 4 Este 15 Norte 0 1023.7 0.8 78
2019-03-02 11:00:00 11.8 9 Nordeste 15 Nordeste 0 1023.9 2.1 96
2019-03-02 10:00:00 10.3 6 Este 13 Nordeste 0 1023.5 1.6 100
2019-03-02 09:00:00 9.4 10 Norte 13 Norte 0 1022.9 1.1 100
2019-03-02 08:00:00 8.4 2 Sudeste 9 Sur 0 1021.8 0.1 98
2019-03-02 07:00:00 7.5 0 Calma 8 Sur 0 1021.9 -0.1 96
2019-03-02 06:00:00 8.6 0 Calma 8 Sudeste 0 1021.8 -0.2 96
2019-03-02 05:00:00 8.9 7 Sudeste 9 Sudeste 0 1021.7 -0.2 96
2019-03-02 04:00:00 9.1 0 Calma -- -- 0 1022 0 95
2019-03-02 03:00:00 10 0 Calma 13 Sur 0 1022 -0.1 92
2019-03-02 02:00:00 10.4 12 Sur 15 Sur 0 1021.9 0 93
2019-03-02 01:00:00 10.7 5 Sur 11 Sur 0 1022 0.6 94
2019-03-02 00:00:00 12.1 8 Sur 17 Sur 0 1022.1 0.9 91
2019-03-01 23:00:00 12.9 11 Sur 17 Sudoeste 0 1021.9 1.1 85
2019-03-01 22:00:00 13.6 5 Sudoeste 22 Sudoeste 0 1021.4 1.3 77
2019-03-01 21:00:00 14.8 18 Sudoeste 24 Sudoeste 0 1021.2 1.6 71
2019-03-01 20:00:00 16 17 Sudoeste 28 Sudoeste 0 1020.8 0.8 64
2019-03-01 19:00:00 17.7 22 Sudoeste 32 Sudoeste 0 1020.1 -0.2 56
2019-03-01 18:00:00 20.3 13 Sudoeste 22 Sudoeste 0 1019.6 -1.2 44
2019-03-01 17:00:00 19.8 14 Sudoeste 24 Sudoeste 0 1020 -1.3 51
2019-03-01 16:00:00 20.1 16 Sudoeste 26 Oeste 0 1020.3 -1.9 53
2019-03-01 15:00:00 18.9 15 Sudoeste 26 Sudoeste 0 1020.8 -1.5 58
2019-03-01 14:00:00 18.5 15 Sudoeste 22 Sudoeste 0 1021.3 -1.3 60
2019-03-01 13:00:00 16.8 7 Sudoeste 17 Sur 0 1022.2 -0.3 67
2019-03-01 12:00:00 15.8 7 Sur 11 Sur 0 1022.3 0 74
2019-03-01 11:00:00 13.2 2 Noroeste 9 Noroeste 0 1022.6 0.8 78
2019-03-01 10:00:00 10.8 0 Calma 4 Norte 0 1022.5 0.8 88
2019-03-01 09:00:00 8.6 0 Calma 4 Sudeste 0 1022.3 0.9 94
2019-03-01 08:00:00 7.1 0 Calma 5 Nordeste 0 1021.8 0.6 94
2019-03-01 07:00:00 7.3 0 Calma 8 Este 0 1021.7 0.3 95
2019-03-01 06:00:00 7.2 0 Calma 5 Nordeste 0 1021.4 -0.4 95
2019-03-01 05:00:00 7.6 2 Este 5 Nordeste 0 1021.2 -0.6 93
2019-03-01 04:00:00 8.1 0 Calma 5 Sudeste 0 1021.4 -0.5 94
2019-03-01 03:00:00 8.2 3 Sudeste 13 Sur 0 1021.8 -0.3 92
2019-03-01 02:00:00 9 10 Sur 13 Sur 0 1021.8 -0.4 89
2019-03-01 01:00:00 10.1 10 Sur 13 Sur 0 1021.9 -0.3 83
2019-03-01 00:00:00 10.4 9 Sur -- -- 0 1022.1 -0.2 80
2019-02-28 23:00:00 12.4 4 Sudeste 8 Sudeste 0 1022.2 0.1 71
2019-02-28 22:00:00 15.2 0 Calma 11 Oeste 0 1022.2 0.4 61
2019-02-28 21:00:00 18.1 9 Sudoeste 22 Sudoeste 0 1022.3 0.5 47
2019-02-28 20:00:00 19.5 13 Sudoeste 18 Sudoeste 0 1022.1 0 43
2019-02-28 19:00:00 20.8 4 Sudoeste 8 Sudoeste 0 1021.8 -0.7 31
2019-02-28 18:00:00 22.2 5 Oeste 13 Oeste 0 1021.8 -1.6 27
2019-02-28 17:00:00 23.4 7 Oeste 18 Oeste 0 1022.1 -2.1 24
2019-02-28 16:00:00 23.8 4 Sudeste 13 Sudoeste 0 1022.5 -2.7 26
2019-02-28 15:00:00 23 5 Oeste 13 Oeste 0 1023.4 -2.3 28
2019-02-28 14:00:00 22.2 5 Norte 15 Norte 0 1024.2 -1.8 30
2019-02-28 13:00:00 20.6 4 Este 15 Este 0 1025.2 -0.5 38
2019-02-28 12:00:00 17.8 8 Nordeste 17 Este 0 1025.7 0.4 46
2019-02-28 11:00:00 15.5 9 Nordeste 18 Nordeste 0 1026 1 52
2019-02-28 10:00:00 11.9 5 Nordeste 9 Norte 0 1025.7 1 67
2019-02-28 09:00:00 7.6 0 Calma 9 Este 0 1025.3 1 78
2019-02-28 08:00:00 4.9 0 Calma 9 Norte 0 1025 0.7 82
2019-02-28 07:00:00 5.7 3 Nordeste 8 Nordeste 0 1024.7 0.3 81
2019-02-28 06:00:00 6.3 3 Norte 5 Norte 0 1024.3 -0.2 81
2019-02-28 05:00:00 6.2 2 Norte 11 Este 0 1024.3 -0.3 81
2019-02-28 04:00:00 6.2 8 Este 9 Este 0 1024.4 -0.4 83
2019-02-28 03:00:00 6.5 0 Calma -- -- 0 1024.5 -0.3 81
2019-02-28 02:00:00 7.2 0 Calma -- -- 0 1024.6 -0.1 78
2019-02-28 01:00:00 8.3 0 Calma 5 Nordeste 0 1024.8 0.5 74
2019-02-28 00:00:00 11.1 2 Norte 8 Noroeste 0 1024.8 0.9 56
2019-02-27 23:00:00 11.7 2 Noroeste 15 Oeste 0 1024.7 1.1 51
2019-02-27 22:00:00 12.7 11 Oeste 17 Oeste 0 1024.3 1 52
2019-02-27 21:00:00 14.7 12 Oeste 17 Oeste 0 1023.9 0.7 44
2019-02-27 20:00:00 16.7 -- -- -- -- 0 1023.6 0.5 36
2019-02-27 19:00:00 18.3 11 Oeste 21 Oeste 0 1023.3 -0.1 35
2019-02-27 18:00:00 21.7 13 Oeste 21 Oeste 0 1023.2 -0.3 28
2019-02-27 17:00:00 22.3 11 Oeste 18 Oeste 0 1023.1 -0.9 24
2019-02-27 16:00:00 22.2 10 Oeste 21 Noroeste 0 1023.4 -1.4 24
2019-02-27 15:00:00 22.3 6 Oeste 15 Oeste 0 1023.5 -1.6 22
2019-02-27 14:00:00 20.7 3 Noroeste 13 Norte 0 1024 -1.1 27
2019-02-27 13:00:00 19.2 7 Noroeste 15 Norte 0 1024.8 0.2 31
2019-02-27 12:00:00 17.2 6 Norte 17 Nordeste 0 1025.1 0.9 42
2019-02-27 11:00:00 14.8 9 Nordeste 17 Nordeste 0 1025.1 1.5 47
2019-02-27 10:00:00 11.7 10 Norte 17 Nordeste 0 1024.6 1.4 54
2019-02-27 09:00:00 7.7 8 Norte 13 Nordeste 0 1024.2 1.2 68
2019-02-27 08:00:00 4.3 5 Este 9 Nordeste 0 1023.6 0.4 77
2019-02-27 07:00:00 5.6 4 Nordeste 8 Nordeste 0 1023.2 -0.1 69
2019-02-27 06:00:00 6 4 Norte 11 Norte 0 1023 -0.6 66
2019-02-27 05:00:00 6.7 6 Norte 11 Norte 0 1023.2 -0.5 65
2019-02-27 04:00:00 7.8 6 Norte 18 Nordeste 0 1023.3 -0.3 57
2019-02-27 03:00:00 9.7 14 Nordeste 21 Nordeste 0 1023.6 0.1 50
2019-02-27 02:00:00 9.3 7 Nordeste 17 Nordeste 0 1023.7 0.2 51
2019-02-27 01:00:00 9.2 10 Nordeste 18 Nordeste 0 1023.6 0.8 58
2019-02-27 00:00:00 9.8 15 Nordeste 18 Nordeste 0 1023.5 1.4 57
2019-02-26 23:00:00 11.9 6 Norte 13 Noroeste 0 1023.5 1.5 50
2019-02-26 22:00:00 12.5 0 Calma 13 Sudeste 0 1022.8 1.2 55
2019-02-26 21:00:00 15.6 8 Sur 15 Sur 0 1022.1 1 43
2019-02-26 20:00:00 17.3 14 Sudeste 24 Este 0 1022 0.9 41
2019-02-26 19:00:00 21.4 3 Sur 11 Sur 0 1021.6 0.4 28
2019-02-26 18:00:00 23.9 8 Sur 15 Sudoeste 0 1021.1 -0.7 23
2019-02-26 17:00:00 24.6 8 Sudoeste 21 Sudoeste 0 1021.1 -1.5 22
2019-02-26 16:00:00 24.5 10 Sur 30 Sur 0 1021.2 -2.2 22
2019-02-26 15:00:00 23.7 3 Sudeste 18 Sudeste 0 1021.8 -1.9 22
2019-02-26 14:00:00 22.8 8 Este 28 Nordeste 0 1022.6 -1.1 24
2019-02-26 13:00:00 20.7 18 Este 33 Este 0 1023.4 -0.1 30
2019-02-26 12:00:00 18.6 23 Este 37 Este 0 1023.7 0.5 35
2019-02-26 11:00:00 15.8 19 Este 28 Este 0 1023.7 0.8 53
2019-02-26 10:00:00 12.5 18 Nordeste 26 Nordeste 0 1023.5 0.9 65
2019-02-26 09:00:00 9.3 16 Nordeste 24 Este 0 1023.2 0.7 77
2019-02-26 08:00:00 8 17 Nordeste 26 Nordeste 0 1022.9 0.3 84
2019-02-26 07:00:00 8.3 16 Nordeste 22 Nordeste 0 1022.6 -0.5 84
2019-02-26 06:00:00 7.8 12 Nordeste 18 Nordeste 0 1022.5 -1 86
2019-02-26 05:00:00 7 13 Nordeste 15 Norte 0 1022.6 -1.1 88
2019-02-26 04:00:00 7.3 12 Norte 15 Nordeste 0 1023.1 -0.9 87
2019-02-26 03:00:00 7.7 10 Nordeste 15 Nordeste 0 1023.5 -0.9 82
2019-02-26 02:00:00 9.9 11 Nordeste 17 Nordeste 0 1023.7 -0.8 71
2019-02-26 01:00:00 9.2 7 Nordeste 18 Nordeste 0 1024 0 68
2019-02-26 00:00:00 9.9 12 Norte 15 Norte 0 1024.4 0.9 62
2019-02-25 23:00:00 11.8 8 Este 22 Este 0 1024.5 1 51
2019-02-25 22:00:00 12.6 15 Este 21 Este 0 1024 0.7 50
2019-02-25 21:00:00 14 14 Sudeste 21 Sudeste 0 1023.5 0.6 51
2019-02-25 20:00:00 16.2 16 Este 24 Este 0 1023.5 0.6 44
2019-02-25 19:00:00 19.2 16 Este 30 Este 0 1023.3 -0.1 38
2019-02-25 18:00:00 21.3 22 Este 33 Este 0 1022.9 -1.2 34
2019-02-25 17:00:00 22.2 19 Este 32 Este 0 1022.9 -2 37
2019-02-25 16:00:00 21.9 22 Este 37 Este 0 1023.4 -2.5 39
2019-02-25 15:00:00 21.5 23 Este 35 Este 0 1024.1 -2.3 41
2019-02-25 14:00:00 20.7 26 Este 39 Este 0 1024.9 -1.6 44
2019-02-25 13:00:00 19.7 24 Este 42 Este 0 1025.9 -0.5 46
2019-02-25 12:00:00 18 28 Este 45 Este 0 1026.4 0.4 54
2019-02-25 11:00:00 16.3 27 Este 42 Este 0 1026.5 1.1 60
2019-02-25 10:00:00 12.9 27 Este 39 Este 0 1026.4 1 70
2019-02-25 09:00:00 11.8 18 Este 32 Este 0 1026 0.5 74
2019-02-25 08:00:00 11.3 22 Este 32 Este 0 1025.4 0.1 78
2019-02-25 07:00:00 11.3 23 Este 33 Este 0 1025.4 -0.3 76
2019-02-25 06:00:00 11.3 17 Este 26 Este 0 1025.5 -0.7 75
2019-02-25 05:00:00 11.6 18 Este 26 Este 0 1025.3 -1.1 72
2019-02-25 04:00:00 9.1 14 Nordeste 15 Nordeste 0 1025.7 -0.6 80
2019-02-25 03:00:00 10.7 10 Nordeste 22 Nordeste 0 1026.2 0.1 69
2019-02-25 02:00:00 11.1 15 Nordeste 24 Nordeste 0 1026.4 0.6 66
2019-02-25 01:00:00 9.8 15 Nordeste 18 Nordeste 0 1026.3 1 67
2019-02-25 00:00:00 10.2 13 Nordeste 15 Nordeste 0 1026.1 1.7 66
2019-02-24 23:00:00 12.8 6 Norte 11 Este 0 1025.8 1.7 52
2019-02-24 22:00:00 13.9 9 Sudeste 24 Sudeste 0 1025.3 2.1 49
2019-02-24 21:00:00 16 17 Este 24 Este 0 1024.4 1.3 44
2019-02-24 20:00:00 16.7 13 Este 21 Este 0 1024.1 1.1 47
2019-02-24 19:00:00 21.3 8 Norte 13 Norte 0 1023.2 0 29
2019-02-24 18:00:00 23.3 4 Norte 13 Norte 0 1023.1 -0.4 25
2019-02-24 17:00:00 23.4 6 Norte 18 Noroeste 0 1023 -1.1 26
2019-02-24 16:00:00 23.3 12 Oeste 18 Oeste 0 1023.2 -1.4 26
2019-02-24 15:00:00 23 5 Oeste 17 Sudoeste 0 1023.5 -1.1 28
2019-02-24 14:00:00 22.5 4 Sudoeste 17 Sur 0 1024.1 -0.3 31
2019-02-24 13:00:00 19.9 7 Nordeste 24 Nordeste 0 1024.6 0.5 40
2019-02-24 12:00:00 16.9 15 Nordeste 28 Nordeste 0 1024.6 1.1 48
2019-02-24 11:00:00 14.7 20 Nordeste 28 Nordeste 0 1024.4 1.9 55
2019-02-24 10:00:00 11.5 9 Nordeste 18 Nordeste 0 1024.1 2 67
2019-02-24 09:00:00 7.7 11 Nordeste 17 Norte 0 1023.5 1.4 84
2019-02-24 08:00:00 6.3 5 Oeste 11 Nordeste 0 1022.5 0.3 86
2019-02-24 07:00:00 6.9 12 Nordeste 13 Nordeste 0 1022.1 -0.4 86
2019-02-24 06:00:00 7.5 4 Este 13 Nordeste 0 1022.1 -0.3 83
2019-02-24 05:00:00 6.7 0 Calma 11 Noroeste 0 1022.2 -0.8 86
2019-02-24 04:00:00 6.9 9 Noroeste 13 Noroeste 0 1022.5 -0.7 83
2019-02-24 03:00:00 8.3 0 Calma 8 Este 0 1022.4 -0.9 80
2019-02-24 02:00:00 9.4 8 Noroeste 11 Noroeste 0 1023 -0.4 73
2019-02-24 01:00:00 10.3 3 Nordeste 8 Nordeste 0 1023.2 0.1 72
2019-02-24 00:00:00 11 0 Calma 5 Oeste 0 1023.3 0.4 71
2019-02-23 23:00:00 11.4 0 Calma 9 Este 0 1023.4 0.5 75
2019-02-23 22:00:00 12.4 3 Este 9 Este 0 1023.1 0.4 71
2019-02-23 21:00:00 13.2 7 Sudeste 9 Sudeste 0 1022.9 0.3 69
2019-02-23 20:00:00 16.8 0 Calma 5 Noroeste 0 1022.9 -0.2 59
2019-02-23 19:00:00 20.6 2 Este 8 Este 0 1022.7 -0.8 36
2019-02-23 18:00:00 21.9 4 Este 15 Este 0 1022.6 -1.4 31
2019-02-23 17:00:00 22.9 9 Nordeste 21 Este 0 1023.1 -1.8 27
2019-02-23 16:00:00 22.7 13 Este 24 Este 0 1023.5 -2.5 26
2019-02-23 15:00:00 22 14 Este 22 Este 0 1024 -2.8 30
2019-02-23 14:00:00 20.7 12 Nordeste 21 Nordeste 0 1024.9 -2.1 34
2019-02-23 13:00:00 19.2 12 Nordeste 18 Nordeste 0 1026 -1.1 38
2019-02-23 12:00:00 16.6 14 Nordeste 22 Nordeste 0 1026.8 0.2 47
2019-02-23 11:00:00 13.2 14 Nordeste 18 Nordeste 0 1027 0.7 57
2019-02-23 10:00:00 10.4 11 Nordeste 17 Este 0 1027.1 1.1 69
2019-02-23 09:00:00 7.2 10 Nordeste 17 Este 0 1026.6 0.8 82
2019-02-23 08:00:00 6.7 10 Norte 13 Norte 0 1026.3 0.7 83
2019-02-23 07:00:00 7.2 9 Nordeste 15 Este 0 1026 0.5 82
2019-02-23 06:00:00 7.1 5 Nordeste 11 Norte 0 1025.8 -0.2 83
2019-02-23 05:00:00 6.6 8 Norte 15 Norte 0 1025.6 -0.4 85
2019-02-23 04:00:00 7.6 10 Este 13 Este 0 1025.5 -0.6 83
2019-02-23 03:00:00 8.6 9 Nordeste 15 Nordeste 0 1026 -0.2 78
2019-02-23 02:00:00 8.8 10 Nordeste -- -- 0 1026 -0.1 78
2019-02-23 01:00:00 10 3 Nordeste 9 Nordeste 0 1026.1 0.4 72
2019-02-23 00:00:00 11 3 Nordeste 9 Este 0 1026.2 1 70
2019-02-22 23:00:00 11.9 0 Calma 8 Nordeste 0 1026.1 1.2 69
2019-02-22 22:00:00 13.5 3 Norte 11 Norte 0 1025.7 1.3 60
2019-02-22 21:00:00 14.9 7 Norte 11 Noroeste 0 1025.2 0.8 56
2019-02-22 20:00:00 16.7 4 Noroeste 11 Norte 0 1024.9 0.4 55
2019-02-22 19:00:00 20.7 6 Nordeste 11 Norte 0 1024.4 -0.3 34
2019-02-22 18:00:00 23.4 0 Calma 11 Nordeste 0 1024.4 -0.3 28
2019-02-22 17:00:00 23.2 6 Este 15 Este 0 1024.5 -0.9 29
2019-02-22 16:00:00 22.9 3 Norte 17 Este 0 1024.7 -1.5 29
2019-02-22 15:00:00 21.9 8 Este 18 Este 0 1024.7 -2 34
2019-02-22 14:00:00 20.9 5 Este 18 Este 0 1025.4 -1.4 38
2019-02-22 13:00:00 19.6 11 Este 21 Este 0 1026.2 -0.3 42
2019-02-22 12:00:00 17.3 11 Este 21 Este 0 1026.7 0.5 53
2019-02-22 11:00:00 14.3 10 Nordeste 22 Nordeste 0 1026.8 1 64
2019-02-22 10:00:00 11.4 14 Nordeste 21 Nordeste 0 1026.5 1 74
2019-02-22 09:00:00 8.4 13 Nordeste 21 Nordeste 0 1026.2 0.4 85
2019-02-22 08:00:00 7.8 12 Nordeste 22 Nordeste 0 1025.8 0.2 88
2019-02-22 07:00:00 8.2 15 Nordeste 22 Nordeste 0 1025.5 -0.4 88
2019-02-22 06:00:00 8.3 11 Nordeste 21 Nordeste 0 1025.8 -0.3 87
2019-02-22 05:00:00 7.4 8 Nordeste 13 Nordeste 0 1025.6 -0.3 90
2019-02-22 04:00:00 7.3 4 Norte 11 Nordeste 0 1025.9 0.1 87
2019-02-22 03:00:00 7.9 3 Noroeste 9 Norte 0 1026.1 0.1 84
2019-02-22 02:00:00 8 3 Este 9 Este 0 1025.9 0.3 88
2019-02-22 01:00:00 9.1 2 Este 8 Este 0 1025.8 0.9 85
2019-02-22 00:00:00 9.9 0 Calma 5 Oeste 0 1026 1.8 83
2019-02-21 23:00:00 11.3 5 Oeste 8 Sudoeste 0 1025.6 2.6 77
2019-02-21 22:00:00 14 6 Oeste 18 Sudoeste 0 1024.9 2.8 67
2019-02-21 21:00:00 15.4 14 Sudoeste 24 Sudoeste 0 1024.2 2.3 60
2019-02-21 20:00:00 15.5 7 Este 13 Este 0 1023 1.1 60
2019-02-21 19:00:00 19.2 5 Sudoeste 8 Sudoeste 0 1022.1 0.2 43
2019-02-21 18:00:00 21.1 7 Sudoeste 13 Sudoeste 0 1021.9 -0.2 39
2019-02-21 17:00:00 21.6 5 Sudoeste 15 Sudeste 0 1021.9 -0.4 38
2019-02-21 16:00:00 21.4 4 Este 17 Sudeste 0 1021.9 -0.8 38
2019-02-21 15:00:00 21.1 8 Sur 15 Sudeste 0 1022.1 -1 39
2019-02-21 14:00:00 19.6 6 Este 18 Sudeste 0 1022.3 -0.5 42
2019-02-21 13:00:00 18.8 10 Este 26 Nordeste 0 1022.7 0.5 46
2019-02-21 12:00:00 16.1 16 Nordeste 24 Nordeste 0 1023.1 1.6 65
2019-02-21 11:00:00 13.9 14 Nordeste 24 Nordeste 0 1022.8 1.9 71
2019-02-21 10:00:00 11.4 12 Nordeste 26 Nordeste 0 1022.2 1.6 78
2019-02-21 09:00:00 8.9 15 Nordeste 22 Este 0 1021.5 1 87
2019-02-21 08:00:00 8.5 14 Nordeste 21 Este 0 1020.9 0.5 88
2019-02-21 07:00:00 8.7 11 Nordeste 18 Nordeste 0 1020.6 0.1 87
2019-02-21 06:00:00 8.7 11 Nordeste 17 Este 0 1020.5 -0.2 88
2019-02-21 05:00:00 8.6 10 Este 21 Este 0 1020.4 -0.4 88
2019-02-21 04:00:00 8.6 9 Nordeste 13 Nordeste 0 1020.5 -0.2 87
2019-02-21 03:00:00 7.7 8 Nordeste 13 Nordeste 0 1020.7 0.2 86
2019-02-21 02:00:00 8 6 Norte 15 Nordeste 0 1020.8 0.4 79
2019-02-21 01:00:00 8.9 4 Este 11 Este 0 1020.7 0.9 80
2019-02-21 00:00:00 9.5 9 Este 13 Sudeste 0 1020.5 1.5 80
2019-02-20 23:00:00 11.5 7 Sudeste 9 Sudeste 0 1020.4 1.8 70
2019-02-20 22:00:00 12.4 6 Sur 15 Sur 0 1019.8 1.7 65
2019-02-20 21:00:00 13.3 12 Este 17 Este 0 1019 1.2 61
2019-02-20 20:00:00 15.2 13 Este 18 Este 0 1018.6 0.6 54
2019-02-20 19:00:00 17.9 11 Nordeste 17 Este 0 1018.1 -0.1 49
2019-02-20 18:00:00 19.9 6 Este 17 Este 0 1017.8 -0.9 42
2019-02-20 17:00:00 20 5 Nordeste 15 Norte 0 1018 -1.1 46
2019-02-20 16:00:00 20.3 6 Sudeste 11 Sur 0 1018.2 -1.7 47
2019-02-20 15:00:00 19.2 6 Sudeste 18 Este 0 1018.7 -1.4 51
2019-02-20 14:00:00 18.1 8 Nordeste 21 Este 0 1019.1 -0.7 56
2019-02-20 13:00:00 16.8 10 Este 18 Nordeste 0 1019.9 0.5 61
2019-02-20 12:00:00 15.1 8 Nordeste 22 Nordeste 0 1020.1 1.2 71
2019-02-20 11:00:00 13.9 12 Nordeste 21 Este 0 1019.8 1.7 74
2019-02-20 10:00:00 11.6 13 Nordeste 18 Nordeste 0 1019.4 1.8 84
2019-02-20 09:00:00 8.2 4 Norte 13 Este 0 1018.9 1.6 96
2019-02-20 08:00:00 7.1 3 Este 9 Nordeste 0 1018.1 0.9 96
2019-02-20 07:00:00 7.7 4 Nordeste 9 Nordeste 0 1017.6 0.3 95
2019-02-20 06:00:00 8.3 5 Sur 9 Sur 0 1017.3 0.1 94
2019-02-20 05:00:00 8.8 2 Nordeste 13 Sur 0 1017.2 0.1 93
2019-02-20 04:00:00 8.9 10 Sur 13 Sur 0 1017.3 0.2 94
2019-02-20 03:00:00 9.7 8 Sudeste 15 Este 0 1017.2 0 90
2019-02-20 02:00:00 11.1 5 Nordeste 8 Nordeste 0 1017.1 0 85
2019-02-20 01:00:00 12.4 4 Nordeste 5 Norte 0 1017.1 0.6 79
2019-02-20 00:00:00 12.7 3 Noroeste 5 Noroeste 0 1017.2 1.2 75